Terminal Aerodrome Forecast
Issued by NWS

Home | Current Version | Previous Version | Text Only | Print | Product List | Glossary On
Versions: 1 2 3 4 5 6 7 8 9 10 11 12
000
FTUS46 KSTO 181122
TAFSMF
TAF
KSMF 181122Z 1812/1912 16008KT P6SM SKC
     FM182000 19009KT P6SM SKC
     FM190500 15009KT P6SM SKC=

USA.gov is the U.S. government's official web portal to all federal, state and local government web resources and services.